Time;durP1;ratioP1;P1;durP2;ratioP2;P2;SDS_P1;SDS_P2;PMS_P1;PMS_P2;Temp;Humidity;BMP_temperature;BMP_pressure;BME280_temperature;BME280_humidity;BME280_pressure;Samples;Min_cycle;Max_cycle;Signal;HPM_P1;HPM_P2
2021/05/30 00:00:09;;;;;;;0.40;0.20;;;11.80;98.70;;;;;;5030354;28;20438;-77
2021/05/30 00:02:35;;;;;;;0.40;0.20;;;11.80;96.80;;;;;;5011814;28;20416;-76
2021/05/30 00:05:01;;;;;;;0.40;0.30;;;11.70;97.00;;;;;;5011696;28;20400;-76
2021/05/30 00:07:26;;;;;;;0.40;0.20;;;11.80;96.10;;;;;;5014848;28;20388;-76
2021/05/30 00:09:53;;;;;;;0.40;0.20;;;11.70;96.60;;;;;;5014686;28;20392;-76
2021/05/30 00:12:20;;;;;;;0.40;0.30;;;11.70;96.00;;;;;;5015009;28;20389;-76
2021/05/30 00:14:45;;;;;;;0.40;0.20;;;11.80;96.50;;;;;;4996957;28;20388;-79
2021/05/30 00:17:13;;;;;;;0.40;0.20;;;11.60;97.10;;;;;;4997223;28;20412;-77
2021/05/30 00:19:39;;;;;;;0.40;0.20;;;11.40;97.90;;;;;;5014935;28;20443;-77
2021/05/30 00:22:04;;;;;;;0.40;0.20;;;11.50;97.70;;;;;;5014312;28;20383;-76
2021/05/30 00:24:30;;;;;;;0.40;0.30;;;11.50;97.40;;;;;;5014943;28;20859;-76
2021/05/30 00:26:56;;;;;;;0.40;0.20;;;11.70;99.30;;;;;;4996612;28;20396;-77
2021/05/30 00:29:21;;;;;;;0.40;0.20;;;11.20;99.90;;;;;;5014827;28;20396;-76
2021/05/30 00:31:47;;;;;;;0.40;0.20;;;11.60;99.50;;;;;;5014190;28;20491;-77
2021/05/30 00:34:13;;;;;;;0.40;0.30;;;11.20;99.30;;;;;;5014428;28;20452;-76
2021/05/30 00:36:38;;;;;;;0.40;0.30;;;11.10;99.20;;;;;;4997088;28;20398;-76
2021/05/30 00:39:04;;;;;;;0.40;0.20;;;11.10;99.90;;;;;;5014019;28;20794;-76
2021/05/30 00:41:30;;;;;;;0.40;0.20;;;11.20;99.90;;;;;;5014723;28;20377;-76
2021/05/30 00:43:56;;;;;;;0.40;0.30;;;11.10;99.80;;;;;;5013613;28;20442;-77
2021/05/30 00:46:22;;;;;;;0.50;0.40;;;11.10;99.70;;;;;;5014577;28;20389;-77
2021/05/30 00:48:49;;;;;;;0.40;0.20;;;11.10;99.90;;;;;;5013750;28;20389;-77
2021/05/30 00:51:15;;;;;;;0.40;0.30;;;10.90;99.90;;;;;;5014332;28;20408;-76
2021/05/30 00:53:42;;;;;;;0.40;0.20;;;11.10;99.90;;;;;;5014315;28;20450;-76
2021/05/30 00:56:10;;;;;;;0.40;0.30;;;11.10;99.90;;;;;;5013763;28;20389;-76
2021/05/30 00:58:37;;;;;;;0.40;0.20;;;11.00;99.90;;;;;;4996570;28;20891;-76
2021/05/30 01:01:03;;;;;;;0.40;0.30;;;11.00;99.90;;;;;;5019788;28;20455;-76
2021/05/30 01:03:31;;;;;;;0.40;0.20;;;11.00;99.90;;;;;;5016140;28;20754;-76
2021/05/30 01:05:57;;;;;;;0.40;0.20;;;11.00;99.90;;;;;;5033407;28;20387;-76
2021/05/30 01:08:28;;;;;;;0.40;0.30;;;10.90;99.90;;;;;;5033934;28;20379;-76
2021/05/30 01:10:57;;;;;;;0.40;0.30;;;10.90;99.90;;;;;;5033238;28;20535;-77
2021/05/30 01:13:24;;;;;;;0.40;0.20;;;11.30;99.90;;;;;;5015762;28;20407;-76
2021/05/30 01:15:50;;;;;;;0.40;0.30;;;10.90;99.90;;;;;;5011296;28;20740;-77
2021/05/30 01:18:24;;;;;;;0.40;0.30;;;10.90;99.90;;;;;;5013150;28;20389;-76
2021/05/30 01:20:51;;;;;;;0.40;0.30;;;10.80;99.90;;;;;;5013356;28;20388;-77
2021/05/30 01:23:18;;;;;;;0.40;0.22;;;10.80;99.90;;;;;;5014057;28;20423;-76
2021/05/30 01:25:45;;;;;;;0.40;0.30;;;11.30;99.90;;;;;;5013829;28;20419;-77
2021/05/30 01:28:11;;;;;;;0.40;0.30;;;10.80;99.90;;;;;;5013138;28;20388;-76
2021/05/30 01:30:37;;;;;;;0.40;0.20;;;10.60;99.90;;;;;;5013686;28;20763;-77
2021/05/30 01:33:03;;;;;;;0.40;0.20;;;10.60;99.90;;;;;;5012960;28;20417;-76
2021/05/30 01:35:30;;;;;;;0.40;0.30;;;10.60;99.90;;;;;;5013595;28;20381;-76
2021/05/30 01:37:56;;;;;;;0.40;0.20;;;10.70;99.90;;;;;;5011670;28;20479;-77
2021/05/30 01:40:22;;;;;;;0.40;0.30;;;10.70;99.90;;;;;;5012252;28;20424;-76
2021/05/30 01:42:48;;;;;;;0.40;0.20;;;10.90;99.90;;;;;;5013474;28;20755;-77
2021/05/30 01:45:16;;;;;;;0.40;0.20;;;11.40;99.90;;;;;;5012525;28;20752;-76
2021/05/30 01:47:43;;;;;;;0.40;0.20;;;10.90;99.90;;;;;;5012003;28;20417;-75
2021/05/30 01:50:14;;;;;;;0.40;0.20;;;10.80;99.90;;;;;;5012720;28;20389;-75
2021/05/30 01:52:40;;;;;;;0.40;0.20;;;10.90;99.90;;;;;;5013482;28;20499;-76
2021/05/30 01:55:09;;;;;;;0.40;0.20;;;10.80;99.90;;;;;;5012596;28;20527;-75
2021/05/30 01:57:47;;;;;;;0.40;0.20;;;10.70;99.90;;;;;;5011768;28;20743;-75
2021/05/30 02:00:13;;;;;;;0.40;0.20;;;10.80;99.90;;;;;;5011364;28;20744;-75
2021/05/30 02:02:39;;;;;;;0.40;0.20;;;10.70;99.90;;;;;;5031677;28;20410;-74
2021/05/30 02:05:05;;;;;;;0.40;0.20;;;10.70;99.90;;;;;;5032207;28;20470;-74
2021/05/30 02:07:33;;;;;;;0.40;0.20;;;10.60;99.90;;;;;;5032512;28;20376;-73
2021/05/30 02:10:01;;;;;;;0.40;0.30;;;10.60;99.90;;;;;;5031804;28;20383;-74
2021/05/30 02:12:28;;;;;;;0.40;0.30;;;10.50;99.90;;;;;;5032728;28;20387;-74
2021/05/30 02:14:57;;;;;;;0.40;0.20;;;10.50;99.90;;;;;;5031918;28;20379;-74
2021/05/30 02:17:24;;;;;;;0.40;0.20;;;10.40;99.90;;;;;;5032841;28;20383;-74
2021/05/30 02:19:50;;;;;;;0.40;0.20;;;10.50;99.90;;;;;;5032458;28;20390;-74
2021/05/30 02:22:16;;;;;;;0.40;0.20;;;10.30;99.90;;;;;;5031947;28;20387;-74
2021/05/30 02:24:44;;;;;;;0.40;0.20;;;10.50;99.90;;;;;;5032124;28;20857;-73
2021/05/30 02:27:10;;;;;;;0.40;0.20;;;10.40;99.90;;;;;;5031550;28;20432;-74
2021/05/30 02:29:39;;;;;;;0.40;0.20;;;10.50;99.90;;;;;;5032165;28;20391;-74
2021/05/30 02:32:07;;;;;;;0.40;0.30;;;10.50;99.90;;;;;;5013858;28;20391;-74
2021/05/30 02:34:33;;;;;;;0.40;0.30;;;10.30;99.90;;;;;;5032209;28;20427;-74
2021/05/30 02:36:59;;;;;;;0.40;0.30;;;11.20;99.90;;;;;;5031634;28;20529;-73
2021/05/30 02:39:24;;;;;;;0.40;0.20;;;10.30;99.90;;;;;;5032071;28;20470;-74
2021/05/30 02:41:50;;;;;;;0.40;0.23;;;11.00;99.90;;;;;;5014061;28;20517;-74
2021/05/30 02:44:16;;;;;;;0.40;0.20;;;10.50;99.90;;;;;;5031458;28;20399;-75
2021/05/30 02:46:42;;;;;;;0.40;0.20;;;10.40;99.90;;;;;;5014330;28;20387;-75
2021/05/30 02:49:08;;;;;;;0.40;0.20;;;10.40;99.90;;;;;;5013564;28;20390;-75
2021/05/30 02:51:34;;;;;;;0.40;0.20;;;10.40;99.90;;;;;;5031618;28;20482;-75
2021/05/30 02:54:01;;;;;;;0.40;0.20;;;10.20;99.90;;;;;;5031548;28;20556;-75
2021/05/30 02:56:27;;;;;;;0.40;0.20;;;10.20;99.90;;;;;;5031927;28;20383;-75
2021/05/30 02:58:53;;;;;;;0.40;0.20;;;10.20;99.90;;;;;;5031791;28;20453;-75
2021/05/30 03:01:19;;;;;;;0.40;0.23;;;10.10;99.90;;;;;;5023092;28;20417;-74
2021/05/30 03:03:45;;;;;;;0.40;0.20;;;10.20;99.90;;;;;;5012023;28;20393;-79
2021/05/30 03:06:11;;;;;;;0.40;0.20;;;10.00;99.90;;;;;;5011405;28;20388;-75
2021/05/30 03:08:36;;;;;;;0.40;0.20;;;10.10;99.90;;;;;;4994230;28;20902;-75
2021/05/30 03:11:02;;;;;;;0.40;0.20;;;10.30;99.90;;;;;;5011621;28;20503;-75
2021/05/30 03:13:28;;;;;;;0.40;0.20;;;10.30;99.90;;;;;;5011700;28;20420;-75
2021/05/30 03:15:53;;;;;;;0.40;0.30;;;11.00;99.90;;;;;;5011724;28;20396;-75
2021/05/30 03:18:19;;;;;;;0.40;0.30;;;10.30;99.90;;;;;;5011352;28;20387;-75
2021/05/30 03:20:44;;;;;;;0.40;0.20;;;10.80;99.90;;;;;;5011494;28;20431;-75
2021/05/30 03:23:10;;;;;;;0.40;0.30;;;10.30;99.90;;;;;;5011140;28;20377;-76
2021/05/30 03:25:36;;;;;;;0.40;0.20;;;10.30;99.90;;;;;;4994003;28;20399;-75
2021/05/30 03:28:03;;;;;;;0.40;0.20;;;10.10;99.90;;;;;;4993395;28;20391;-76
2021/05/30 03:30:29;;;;;;;0.40;0.20;;;10.10;99.90;;;;;;5011090;28;20855;-76
2021/05/30 03:32:54;;;;;;;0.40;0.30;;;10.10;99.90;;;;;;4993958;28;20428;-75
2021/05/30 03:35:20;;;;;;;0.40;0.20;;;10.20;99.90;;;;;;5010546;28;20848;-75
2021/05/30 03:37:46;;;;;;;0.40;0.20;;;10.20;99.90;;;;;;5011099;28;20388;-75
2021/05/30 03:40:27;;;;;;;0.40;0.30;;;10.00;99.90;;;;;;5010044;28;20389;-76
2021/05/30 03:42:53;;;;;;;0.40;0.30;;;10.00;99.90;;;;;;5011462;28;20458;-75
2021/05/30 03:45:22;;;;;;;0.40;0.30;;;10.10;99.90;;;;;;5011020;28;20393;-75
2021/05/30 03:47:48;;;;;;;0.40;0.20;;;10.00;99.90;;;;;;5011263;28;20499;-76
2021/05/30 03:50:14;;;;;;;0.40;0.20;;;9.10;99.90;;;;;;5010468;28;20460;-76
2021/05/30 03:52:40;;;;;;;0.40;0.20;;;10.60;99.90;;;;;;4993679;28;20763;-76
2021/05/30 03:55:07;;;;;;;0.40;0.20;;;9.90;99.90;;;;;;5010577;28;20439;-75
2021/05/30 03:57:37;;;;;;;0.40;0.30;;;10.00;99.90;;;;;;4993946;28;20857;-75
2021/05/30 04:00:08;;;;;;;0.40;0.30;;;10.00;99.90;;;;;;5010833;28;20739;-77
2021/05/30 04:02:34;;;;;;;0.40;0.30;;;9.90;99.90;;;;;;5012112;28;20465;-75
2021/05/30 04:05:00;;;;;;;0.40;0.30;;;9.90;99.90;;;;;;5030443;28;20391;-77
2021/05/30 04:07:25;;;;;;;0.40;0.30;;;9.80;99.90;;;;;;5030975;28;20394;-76
2021/05/30 04:09:51;;;;;;;0.40;0.20;;;10.10;99.90;;;;;;5031101;28;20379;-75
2021/05/30 04:12:17;;;;;;;0.40;0.20;;;9.90;99.90;;;;;;5030538;28;20379;-76
2021/05/30 04:14:42;;;;;;;0.40;0.20;;;9.90;99.90;;;;;;5031343;28;20395;-76
2021/05/30 04:17:08;;;;;;;0.40;0.25;;;10.00;99.90;;;;;;5030555;28;20386;-75
2021/05/30 04:19:34;;;;;;;0.40;0.30;;;9.90;99.90;;;;;;5013348;28;20387;-74
2021/05/30 04:22:00;;;;;;;0.40;0.20;;;10.10;99.90;;;;;;5030933;28;20387;-77
2021/05/30 04:24:26;;;;;;;0.40;0.30;;;9.70;99.90;;;;;;5031010;28;20391;-75
2021/05/30 04:26:51;;;;;;;0.40;0.20;;;9.90;99.90;;;;;;5030841;28;20394;-75
2021/05/30 04:29:17;;;;;;;0.40;0.20;;;9.80;99.90;;;;;;5030430;28;20375;-74
2021/05/30 04:31:43;;;;;;;0.40;0.20;;;9.80;99.90;;;;;;5013004;28;20426;-74
2021/05/30 04:34:09;;;;;;;0.40;0.30;;;9.90;99.90;;;;;;5030344;28;20410;-74
2021/05/30 04:36:35;;;;;;;0.40;0.20;;;10.00;99.90;;;;;;5030588;28;20445;-74
2021/05/30 04:39:01;;;;;;;0.40;0.20;;;10.00;99.90;;;;;;5030697;28;20383;-77
2021/05/30 04:41:26;;;;;;;0.40;0.30;;;10.00;99.90;;;;;;5031085;28;20855;-75
2021/05/30 04:43:52;;;;;;;0.40;0.30;;;10.10;99.90;;;;;;5030684;28;20387;-74
2021/05/30 04:46:17;;;;;;;0.40;0.20;;;10.10;99.90;;;;;;5030151;28;20436;-74
2021/05/30 04:48:45;;;;;;;0.40;0.20;;;9.90;99.90;;;;;;5029998;28;20472;-74
2021/05/30 04:51:13;;;;;;;0.40;0.20;;;11.30;99.90;;;;;;5031512;28;20745;-75
2021/05/30 04:53:44;;;;;;;0.40;0.20;;;10.20;99.90;;;;;;5034151;28;20502;-74
2021/05/30 04:56:12;;;;;;;0.40;0.20;;;10.40;99.90;;;;;;5016184;28;20793;-74
2021/05/30 04:58:38;;;;;;;0.40;0.30;;;10.40;99.90;;;;;;5034143;28;20457;-74
2021/05/30 05:01:05;;;;;;;0.40;0.30;;;10.20;99.90;;;;;;5009640;28;20413;-75
2021/05/30 05:03:35;;;;;;;0.40;0.20;;;10.40;99.90;;;;;;4996932;28;20440;-74
2021/05/30 05:06:00;;;;;;;0.40;0.20;;;10.30;99.90;;;;;;5014131;28;20381;-74
2021/05/30 05:08:26;;;;;;;0.40;0.30;;;11.40;99.90;;;;;;5013892;28;20797;-74
2021/05/30 05:10:52;;;;;;;0.40;0.20;;;10.50;99.90;;;;;;5014049;28;20385;-74
2021/05/30 05:13:18;;;;;;;0.40;0.30;;;10.50;99.90;;;;;;5013640;28;20420;-74
2021/05/30 05:15:48;;;;;;;0.40;0.30;;;10.60;99.90;;;;;;5014037;28;20464;-74
2021/05/30 05:18:23;;;;;;;0.40;0.20;;;10.60;99.90;;;;;;4996134;28;20397;-75
2021/05/30 05:20:50;;;;;;;0.40;0.25;;;10.70;99.90;;;;;;5014112;28;20396;-74
2021/05/30 05:23:18;;;;;;;0.40;0.30;;;10.70;99.90;;;;;;5013604;28;20727;-74
2021/05/30 05:25:44;;;;;;;0.40;0.30;;;11.70;99.90;;;;;;5014034;28;20411;-74
2021/05/30 05:28:10;;;;;;;0.40;0.20;;;10.80;99.90;;;;;;5013378;28;20869;-75
2021/05/30 05:30:36;;;;;;;0.40;0.20;;;10.90;99.90;;;;;;5014448;28;20512;-74
2021/05/30 05:33:01;;;;;;;0.40;0.30;;;10.90;99.90;;;;;;5014329;28;20590;-75
2021/05/30 05:35:28;;;;;;;0.40;0.30;;;11.00;99.90;;;;;;5013067;28;20875;-74
2021/05/30 05:37:56;;;;;;;0.40;0.20;;;11.20;99.90;;;;;;5013759;28;20385;-75
2021/05/30 05:40:22;;;;;;;0.40;0.20;;;11.30;99.90;;;;;;5013234;28;20381;-74
2021/05/30 05:42:49;;;;;;;0.40;0.20;;;11.40;99.90;;;;;;5013794;28;20713;-74
2021/05/30 05:45:16;;;;;;;0.40;0.20;;;11.50;99.90;;;;;;5013090;28;20852;-75
2021/05/30 05:47:43;;;;;;;0.40;0.20;;;11.60;99.90;;;;;;5016700;28;20429;-75
2021/05/30 05:50:14;;;;;;;0.40;0.20;;;11.70;99.90;;;;;;5024074;28;20383;-77
2021/05/30 05:52:40;;;;;;;0.40;0.30;;;11.80;99.90;;;;;;5018603;28;20407;-76
2021/05/30 05:55:08;;;;;;;0.40;0.20;;;11.90;99.90;;;;;;5018570;28;20925;-76
2021/05/30 05:57:34;;;;;;;0.40;0.20;;;12.00;99.90;;;;;;5019832;28;20412;-75
2021/05/30 06:00:02;;;;;;;0.40;0.20;;;12.00;99.90;;;;;;5020367;28;20405;-76
2021/05/30 06:02:28;;;;;;;0.40;0.20;;;12.10;99.90;;;;;;5021969;28;20475;-76
2021/05/30 06:04:53;;;;;;;0.40;0.20;;;12.20;99.90;;;;;;5023444;28;20813;-75
2021/05/30 06:07:19;;;;;;;0.40;0.30;;;12.30;99.90;;;;;;5025940;28;20459;-76
2021/05/30 06:09:45;;;;;;;0.40;0.20;;;12.50;99.90;;;;;;5016531;28;20381;-77
2021/05/30 06:12:11;;;;;;;0.40;0.20;;;12.70;99.90;;;;;;5028078;28;20430;-75
2021/05/30 06:14:37;;;;;;;0.40;0.20;;;12.90;99.90;;;;;;5015506;28;20408;-77
2021/05/30 06:17:03;;;;;;;0.40;0.30;;;13.00;99.90;;;;;;5014584;28;20398;-76
2021/05/30 06:19:30;;;;;;;0.40;0.20;;;13.20;99.00;;;;;;5032403;28;20800;-76
2021/05/30 06:21:55;;;;;;;0.40;0.20;;;13.60;97.10;;;;;;5016260;28;20377;-75
2021/05/30 06:24:21;;;;;;;0.40;0.20;;;13.40;95.70;;;;;;5020509;28;20442;-74
2021/05/30 06:26:47;;;;;;;0.40;0.20;;;13.60;95.60;;;;;;5023895;28;20395;-75
2021/05/30 06:29:12;;;;;;;0.40;0.30;;;13.70;96.50;;;;;;5020408;28;20391;-76
2021/05/30 06:31:38;;;;;;;0.40;0.30;;;13.70;96.00;;;;;;5016686;28;20487;-75
2021/05/30 06:34:04;;;;;;;0.40;0.20;;;14.00;92.90;;;;;;5007034;28;20452;-75
2021/05/30 06:36:31;;;;;;;0.40;0.30;;;14.20;92.30;;;;;;5016656;28;20405;-74
2021/05/30 06:38:56;;;;;;;0.40;0.30;;;14.20;92.80;;;;;;5019418;28;20392;-74
2021/05/30 06:41:22;;;;;;;0.40;0.30;;;14.30;91.70;;;;;;5031080;28;20376;-75
2021/05/30 06:43:51;;;;;;;0.40;0.30;;;14.40;93.10;;;;;;5028086;28;20437;-76
2021/05/30 06:46:17;;;;;;;0.40;0.20;;;14.50;94.00;;;;;;5003325;28;20897;-76
2021/05/30 06:48:42;;;;;;;0.40;0.20;;;14.60;93.90;;;;;;5018195;28;20389;-77
2021/05/30 06:51:18;;;;;;;0.40;0.20;;;14.80;94.00;;;;;;5020977;28;20419;-78
2021/05/30 06:53:49;;;;;;;0.40;0.20;;;14.80;93.80;;;;;;5028460;28;20901;-76
2021/05/30 06:56:15;;;;;;;0.40;0.20;;;14.70;93.80;;;;;;5018917;28;20809;-77
2021/05/30 06:58:41;;;;;;;0.40;0.20;;;14.70;94.30;;;;;;5028379;28;20915;-76
2021/05/30 07:01:07;;;;;;;0.40;0.30;;;14.80;94.10;;;;;;5024385;28;20404;-78
2021/05/30 07:03:32;;;;;;;0.40;0.30;;;15.10;93.80;;;;;;5011867;28;20396;-77
2021/05/30 07:05:59;;;;;;;0.40;0.20;;;15.00;94.30;;;;;;5012112;28;20463;-75
2021/05/30 07:08:25;;;;;;;0.40;0.20;;;14.90;95.80;;;;;;5030592;28;20857;-75
2021/05/30 07:10:51;;;;;;;0.40;0.20;;;15.10;93.20;;;;;;5023673;28;20381;-75
2021/05/30 07:13:17;;;;;;;0.40;0.20;;;15.20;93.90;;;;;;5010881;28;20412;-76
2021/05/30 07:15:43;;;;;;;0.40;0.20;;;15.10;93.60;;;;;;5011740;28;20399;-75
2021/05/30 07:18:08;;;;;;;0.40;0.22;;;15.30;92.20;;;;;;5011487;28;20780;-79
2021/05/30 07:20:34;;;;;;;0.40;0.20;;;15.60;86.30;;;;;;5011129;28;20423;-75
2021/05/30 07:23:00;;;;;;;0.40;0.20;;;15.90;80.40;;;;;;5011606;28;20387;-76
2021/05/30 07:25:25;;;;;;;0.40;0.20;;;16.20;75.00;;;;;;5015728;28;20441;-77
2021/05/30 07:27:51;;;;;;;0.40;0.30;;;16.30;72.50;;;;;;4996335;28;20431;-77
2021/05/30 07:30:18;;;;;;;0.40;0.22;;;16.50;71.20;;;;;;5006887;28;20453;-76
2021/05/30 07:32:44;;;;;;;0.40;0.30;;;16.60;71.40;;;;;;5022798;28;20414;-78
2021/05/30 07:35:10;;;;;;;0.40;0.30;;;16.60;71.50;;;;;;5023043;28;20418;-79
2021/05/30 07:37:35;;;;;;;0.40;0.20;;;16.70;70.80;;;;;;5018825;28;20383;-76
2021/05/30 07:40:01;;;;;;;0.40;0.20;;;16.70;67.40;;;;;;5024907;28;20444;-77
2021/05/30 07:42:27;;;;;;;0.40;0.20;;;16.80;65.80;;;;;;5007374;28;20403;-77
2021/05/30 07:44:52;;;;;;;0.40;0.30;;;17.00;65.20;;;;;;5027431;28;20588;-76
2021/05/30 07:47:18;;;;;;;0.40;0.30;;;16.90;66.40;;;;;;5008126;28;20395;-77
2021/05/30 07:49:44;;;;;;;0.40;0.30;;;17.00;65.40;;;;;;5021431;28;20724;-77
2021/05/30 07:52:09;;;;;;;0.40;0.20;;;17.10;64.20;;;;;;5024127;28;20545;-76
2021/05/30 07:54:35;;;;;;;0.40;0.20;;;17.10;64.30;;;;;;5025919;28;20402;-76
2021/05/30 07:57:00;;;;;;;0.40;0.30;;;17.40;64.40;;;;;;5023283;28;20535;-76
2021/05/30 07:59:26;;;;;;;0.40;0.30;;;17.40;64.10;;;;;;5025793;28;20407;-76
2021/05/30 08:01:52;;;;;;;0.40;0.30;;;17.40;64.20;;;;;;5010777;28;20405;-76
2021/05/30 08:04:23;;;;;;;0.40;0.20;;;17.30;61.70;;;;;;5026077;28;20391;-78
2021/05/30 08:06:48;;;;;;;0.40;0.22;;;17.40;62.50;;;;;;5000361;28;20407;-78
2021/05/30 08:09:14;;;;;;;0.40;0.20;;;17.30;60.00;;;;;;5005395;28;20390;-77
2021/05/30 08:11:40;;;;;;;0.40;0.30;;;17.40;63.00;;;;;;5009099;28;20399;-74
2021/05/30 08:14:05;;;;;;;0.40;0.30;;;17.40;63.70;;;;;;5006926;28;20472;-73
2021/05/30 08:16:31;;;;;;;0.40;0.20;;;17.40;61.70;;;;;;5020776;28;20410;-74
2021/05/30 08:18:57;;;;;;;0.40;0.20;;;17.60;62.40;;;;;;5023224;28;20414;-73
2021/05/30 08:21:22;;;;;;;0.40;0.20;;;17.70;60.30;;;;;;5022501;28;20888;-73
2021/05/30 08:23:49;;;;;;;0.40;0.30;;;17.80;61.60;;;;;;4997792;28;20439;-74
2021/05/30 08:26:15;;;;;;;0.40;0.30;;;17.70;61.30;;;;;;5021261;28;20396;-77
2021/05/30 08:28:41;;;;;;;0.40;0.30;;;17.90;63.00;;;;;;5029108;28;20398;-74
2021/05/30 08:31:07;;;;;;;0.40;0.30;;;17.80;60.50;;;;;;5025174;28;20374;-75
2021/05/30 08:33:33;;;;;;;0.40;0.30;;;17.90;62.30;;;;;;5025922;28;20480;-74
2021/05/30 08:35:59;;;;;;;0.40;0.30;;;18.00;61.40;;;;;;5023922;28;21791;-72
2021/05/30 08:38:25;;;;;;;0.40;0.30;;;18.00;62.80;;;;;;5025412;28;20415;-73
2021/05/30 08:40:51;;;;;;;0.40;0.20;;;17.90;59.40;;;;;;5026374;28;20812;-74
2021/05/30 08:43:18;;;;;;;0.40;0.20;;;18.10;59.30;;;;;;5007734;28;20401;-72
2021/05/30 08:45:44;;;;;;;0.40;0.20;;;18.10;60.90;;;;;;5024690;28;20391;-73
2021/05/30 08:48:11;;;;;;;0.40;0.20;;;18.00;59.70;;;;;;5025120;28;20398;-74
2021/05/30 08:50:37;;;;;;;0.40;0.20;;;18.10;59.20;;;;;;5026334;28;20442;-73
2021/05/30 08:53:04;;;;;;;0.40;0.30;;;18.20;61.80;;;;;;5023200;28;20414;-74
2021/05/30 08:55:30;;;;;;;0.40;0.30;;;18.20;62.10;;;;;;5009405;28;20399;-74
2021/05/30 08:57:57;;;;;;;0.40;0.20;;;18.20;64.50;;;;;;5024626;28;20732;-74
2021/05/30 09:00:28;;;;;;;0.40;0.28;;;18.40;60.10;;;;;;5004013;28;20429;-73
2021/05/30 09:03:13;;;;;;;0.40;0.20;;;18.40;60.50;;;;;;5011323;28;20804;-73
2021/05/30 09:05:39;;;;;;;0.40;0.28;;;18.50;62.40;;;;;;5006678;28;20398;-74
2021/05/30 09:08:05;;;;;;;0.40;0.20;;;18.50;60.30;;;;;;5006894;28;20395;-74
2021/05/30 09:10:32;;;;;;;0.40;0.20;;;18.50;61.30;;;;;;5025080;28;20454;-73
2021/05/30 09:13:15;;;;;;;0.40;0.30;;;18.60;60.90;;;;;;5018621;28;20455;-73
2021/05/30 09:18:19;;;;;;;0.40;0.28;;;18.60;58.60;;;;;;5018962;28;20403;-77
2021/05/30 09:20:51;;;;;;;0.40;0.30;;;18.70;58.10;;;;;;5026255;28;20375;-75
2021/05/30 09:23:39;;;;;;;0.40;0.30;;;18.70;59.20;;;;;;5024607;28;20391;-76
2021/05/30 09:26:14;;;;;;;0.40;0.20;;;18.70;59.20;;;;;;5024136;28;20375;-73
2021/05/30 09:29:01;;;;;;;0.40;0.20;;;18.80;58.30;;;;;;5024790;28;21019;-73
2021/05/30 09:31:27;;;;;;;0.40;0.25;;;18.70;57.40;;;;;;5025623;28;20387;-74
2021/05/30 09:33:52;;;;;;;0.40;0.20;;;18.90;58.10;;;;;;5028463;28;20411;-74
2021/05/30 09:36:21;;;;;;;0.40;0.20;;;19.00;58.90;;;;;;5025123;28;20385;-74
2021/05/30 09:38:47;;;;;;;0.40;0.30;;;18.90;58.70;;;;;;5006400;28;20877;-74
2021/05/30 09:41:16;;;;;;;0.40;0.20;;;19.00;59.70;;;;;;5024320;28;20406;-74
2021/05/30 09:43:51;;;;;;;0.40;0.30;;;19.20;57.90;;;;;;5023912;28;20411;-73
2021/05/30 09:46:18;;;;;;;0.40;0.30;;;19.40;57.90;;;;;;5021127;28;20831;-76
2021/05/30 09:48:50;;;;;;;0.40;0.30;;;19.40;55.30;;;;;;5025185;28;20420;-73
2021/05/30 09:51:43;;;;;;;0.40;0.30;;;19.60;58.00;;;;;;5025924;28;20415;-76
2021/05/30 09:54:13;;;;;;;0.40;0.30;;;19.60;56.20;;;;;;5022974;28;20422;-74
2021/05/30 09:56:42;;;;;;;0.40;0.20;;;19.50;57.20;;;;;;5016486;28;20397;-73
2021/05/30 09:59:10;;;;;;;0.40;0.25;;;19.50;57.10;;;;;;5010152;28;20437;-73
2021/05/30 10:01:47;;;;;;;0.40;0.30;;;19.70;56.60;;;;;;5025877;28;20430;-73
2021/05/30 10:04:14;;;;;;;0.40;0.30;;;19.90;55.30;;;;;;5009097;28;20770;-73
2021/05/30 10:06:40;;;;;;;0.40;0.30;;;20.00;55.90;;;;;;5019341;28;20901;-73
2021/05/30 10:09:06;;;;;;;0.40;0.20;;;20.30;55.40;;;;;;5002324;28;20396;-73
2021/05/30 10:11:32;;;;;;;0.40;0.20;;;20.20;55.70;;;;;;5018751;28;20396;-74
2021/05/30 10:13:57;;;;;;;0.40;0.20;;;20.20;52.30;;;;;;5010715;28;20421;-73
2021/05/30 10:16:23;;;;;;;0.40;0.20;;;20.40;54.80;;;;;;5022267;28;20533;-72
2021/05/30 10:18:53;;;;;;;0.40;0.30;;;20.40;51.70;;;;;;5031144;28;20481;-74
2021/05/30 10:21:20;;;;;;;0.40;0.30;;;20.30;52.20;;;;;;5003479;28;20391;-77
2021/05/30 10:23:52;;;;;;;0.40;0.20;;;20.40;53.40;;;;;;5024287;28;20885;-72
2021/05/30 10:26:22;;;;;;;0.40;0.30;;;20.40;54.10;;;;;;5013121;28;20387;-74
2021/05/30 10:29:02;;;;;;;0.40;0.20;;;20.50;54.10;;;;;;5031495;28;20394;-75
2021/05/30 10:31:35;;;;;;;0.40;0.20;;;20.60;53.60;;;;;;5030662;28;20383;-71
2021/05/30 10:34:22;;;;;;;0.40;0.30;;;20.60;53.10;;;;;;5031260;28;20476;-71
2021/05/30 10:37:01;;;;;;;0.40;0.20;;;20.80;52.30;;;;;;5018821;28;20383;-71
2021/05/30 10:39:29;;;;;;;0.40;0.20;;;20.60;52.20;;;;;;5028777;28;20897;-72
2021/05/30 10:42:22;;;;;;;0.40;0.20;;;20.70;51.40;;;;;;5031328;28;20734;-72
2021/05/30 10:44:53;;;;;;;0.40;0.20;;;20.80;50.20;;;;;;5011809;28;20396;-73
2021/05/30 10:47:20;;;;;;;0.40;0.30;;;20.70;50.30;;;;;;5011779;28;20385;-76
2021/05/30 10:50:10;;;;;;;0.40;0.20;;;20.90;49.50;;;;;;5014601;28;20400;-73
2021/05/30 10:52:37;;;;;;;0.40;0.30;;;21.00;49.50;;;;;;5010782;28;20459;-72
2021/05/30 10:55:17;;;;;;;0.40;0.20;;;20.70;50.90;;;;;;5011540;28;20398;-72
2021/05/30 10:57:48;;;;;;;0.40;0.20;;;20.90;50.50;;;;;;5009246;28;20395;-73
2021/05/30 11:00:20;;;;;;;0.40;0.20;;;21.10;52.30;;;;;;5019455;28;20434;-72
2021/05/30 11:03:11;;;;;;;0.40;0.30;;;21.10;51.30;;;;;;5002010;28;20405;-73
2021/05/30 11:05:51;;;;;;;0.40;0.30;;;21.00;49.20;;;;;;5013542;28;20486;-71
2021/05/30 11:08:37;;;;;;;0.40;0.30;;;21.40;51.90;;;;;;5009992;28;20405;-72
2021/05/30 11:11:22;;;;;;;0.40;0.20;;;21.40;47.70;;;;;;5014177;28;20390;-73
2021/05/30 11:13:59;;;;;;;0.40;0.30;;;21.60;49.00;;;;;;5013800;28;20773;-73
2021/05/30 11:16:33;;;;;;;0.40;0.20;;;21.90;49.70;;;;;;5022160;28;20471;-73
2021/05/30 11:19:03;;;;;;;0.40;0.20;;;21.90;47.50;;;;;;5014575;28;20389;-72
2021/05/30 11:21:30;;;;;;;0.40;0.20;;;22.20;49.10;;;;;;5026501;28;20379;-73
2021/05/30 11:24:00;;;;;;;0.40;0.30;;;22.50;49.80;;;;;;4993699;28;20409;-72
2021/05/30 11:26:26;;;;;;;0.40;0.30;;;22.60;48.00;;;;;;4998054;28;20740;-72
2021/05/30 11:28:52;;;;;;;0.40;0.30;;;22.60;47.90;;;;;;5023260;28;20518;-73
2021/05/30 11:31:19;;;;;;;0.40;0.20;;;23.00;50.80;;;;;;4998015;28;20480;-72
2021/05/30 11:33:54;;;;;;;0.40;0.30;;;23.00;46.80;;;;;;4995837;28;20504;-73
2021/05/30 11:36:27;;;;;;;0.45;0.30;;;22.90;46.50;;;;;;5011072;28;20388;-78
2021/05/30 11:38:58;;;;;;;0.40;0.20;;;23.30;45.00;;;;;;5020894;28;20473;-75
2021/05/30 11:41:33;;;;;;;0.40;0.30;;;23.90;45.20;;;;;;5020635;28;20383;-76
2021/05/30 11:44:09;;;;;;;0.40;0.20;;;23.50;42.10;;;;;;5019828;28;20462;-77
2021/05/30 11:46:42;;;;;;;0.40;0.20;;;24.30;43.90;;;;;;5018932;28;20396;-74
2021/05/30 11:49:09;;;;;;;0.40;0.30;;;24.70;44.60;;;;;;5022193;28;20399;-75
2021/05/30 11:51:47;;;;;;;0.40;0.20;;;25.70;43.80;;;;;;5019444;28;20869;-75
2021/05/30 11:54:13;;;;;;;0.40;0.20;;;25.40;42.60;;;;;;5021990;28;20897;-74
2021/05/30 11:56:40;;;;;;;0.40;0.20;;;25.90;44.10;;;;;;5011873;28;20480;-76
2021/05/30 11:59:06;;;;;;;0.40;0.20;;;25.80;39.10;;;;;;5019299;28;20383;-75
2021/05/30 12:01:53;;;;;;;0.40;0.20;;;25.20;41.00;;;;;;5019848;28;20440;-74
2021/05/30 12:04:22;;;;;;;0.40;0.20;;;25.70;39.60;;;;;;5019459;28;20413;-77
2021/05/30 12:06:49;;;;;;;0.40;0.20;;;25.20;39.50;;;;;;5020810;28;20757;-75
2021/05/30 12:09:15;;;;;;;0.40;0.20;;;25.10;41.60;;;;;;5019672;28;20387;-75
2021/05/30 12:11:41;;;;;;;0.40;0.20;;;24.70;40.70;;;;;;5020058;28;20389;-75
2021/05/30 12:14:07;;;;;;;0.40;0.20;;;24.40;41.50;;;;;;5025366;28;20820;-75
2021/05/30 12:16:34;;;;;;;0.40;0.20;;;23.90;41.60;;;;;;5030428;28;20486;-75
2021/05/30 12:19:02;;;;;;;0.40;0.20;;;24.30;42.90;;;;;;5012509;28;20759;-75
2021/05/30 12:21:40;;;;;;;0.40;0.20;;;24.50;41.70;;;;;;5010602;28;20385;-75
2021/05/30 12:24:08;;;;;;;0.40;0.20;;;25.20;39.60;;;;;;5011132;28;20478;-75
2021/05/30 12:26:34;;;;;;;0.40;0.20;;;25.40;38.80;;;;;;5010855;28;20424;-75
2021/05/30 12:29:00;;;;;;;0.40;0.28;;;25.40;38.70;;;;;;5011304;28;20443;-75
2021/05/30 12:31:26;;;;;;;0.40;0.20;;;25.30;40.50;;;;;;5010466;28;20767;-76
2021/05/30 12:34:01;;;;;;;0.40;0.20;;;24.40;39.80;;;;;;5011149;28;20409;-75
2021/05/30 12:36:46;;;;;;;0.40;0.20;;;24.60;40.40;;;;;;5010572;28;20471;-74
2021/05/30 12:39:13;;;;;;;0.40;0.30;;;24.50;38.50;;;;;;4993585;28;20404;-75
2021/05/30 12:41:45;;;;;;;0.50;0.30;;;24.80;39.00;;;;;;5010030;28;20903;-75
2021/05/30 12:44:16;;;;;;;0.50;0.20;;;24.10;37.00;;;;;;5011078;28;20435;-75
2021/05/30 12:47:00;;;;;;;0.50;0.20;;;24.10;40.20;;;;;;5010426;28;20480;-74
2021/05/30 12:49:27;;;;;;;0.40;0.20;;;24.60;39.30;;;;;;5010394;28;20396;-75
2021/05/30 12:52:06;;;;;;;0.50;0.20;;;24.90;41.00;;;;;;5010735;28;21003;-75
2021/05/30 12:54:35;;;;;;;0.40;0.20;;;24.70;39.20;;;;;;4992888;28;20494;-75